North Saint Paul, Minnesota
Current Conditions -  °F | °C
As of 10:53 AM on Tuesday 27 Jan 2015 (Local Time) from KSTP Reporting Station
Overcast Overcast  
Wind Chill: -3°   Ceiling: 2000
Heat Index:   Visibility: 10mi
Dew Point: -4°   Wind: 6mph
Humidity: 75%   Direction: 180°S
Pressure: 30.2"   Gusts: NA
Location:  45.0145°N, 93.0259°W
Report Text: KSTP 271653Z 18005KT 10SM OVC020 00/M04 A3020 RMK AO2 SLP232 T00001039 $
Loading
Personal Weather Stations






























Interactive Weather Map New forecast layout! Learn more

10-Day Weather Forecast

Advertisements
Track Severe Weather on mobile